createdAt,value
2018-06-17T00:02:23.092Z,99.90
2018-06-17T00:04:51.675Z,99.90
2018-06-17T00:07:19.868Z,99.90
2018-06-17T00:09:48.556Z,99.90
2018-06-17T00:14:45.687Z,99.90
2018-06-17T00:17:13.871Z,99.90
2018-06-17T00:22:11.703Z,99.90
2018-06-17T00:24:40.037Z,99.90
2018-06-17T00:27:08.564Z,99.90
2018-06-17T00:29:41.112Z,99.90
2018-06-17T00:32:09.291Z,99.90
2018-06-17T00:34:38.748Z,99.90
2018-06-17T00:37:07.712Z,99.90
2018-06-17T00:39:35.891Z,99.90
2018-06-17T00:42:04.164Z,99.90
2018-06-17T00:46:59.501Z,99.90
2018-06-17T00:49:27.696Z,99.90
2018-06-17T00:51:55.867Z,99.90
2018-06-17T00:54:24.072Z,99.90
2018-06-17T00:57:04.203Z,99.90
2018-06-17T00:59:35.759Z,99.90
2018-06-17T01:02:04.862Z,99.90
2018-06-17T01:04:33.075Z,99.90
2018-06-17T01:07:01.307Z,99.90
2018-06-17T01:09:29.501Z,99.90
2018-06-17T01:11:57.709Z,99.90
2018-06-17T01:14:26.896Z,99.90
2018-06-17T01:16:55.077Z,99.90
2018-06-17T01:19:23.330Z,99.90
2018-06-17T01:21:51.549Z,99.90
2018-06-17T01:24:19.743Z,99.90
2018-06-17T01:26:47.952Z,99.90
2018-06-17T01:29:16.764Z,99.90
2018-06-17T01:31:45.022Z,99.90
2018-06-17T01:34:13.772Z,99.90
2018-06-17T01:36:41.989Z,99.90
2018-06-17T01:39:10.346Z,99.90
2018-06-17T01:41:38.703Z,99.90
2018-06-17T01:44:06.932Z,99.90
2018-06-17T01:46:35.154Z,99.90
2018-06-17T01:49:03.453Z,99.90
2018-06-17T01:53:59.779Z,99.90
2018-06-17T01:56:28.334Z,99.90
2018-06-17T01:58:56.672Z,99.90
2018-06-17T02:01:32.482Z,99.90
2018-06-17T02:04:06.119Z,99.90
2018-06-17T02:06:39.670Z,99.90
2018-06-17T02:09:13.178Z,99.90
2018-06-17T02:11:48.055Z,99.90
2018-06-17T02:14:21.598Z,99.90
2018-06-17T02:16:54.395Z,99.90
2018-06-17T02:19:22.632Z,99.90
2018-06-17T02:21:50.884Z,99.90
2018-06-17T02:24:19.137Z,99.90
2018-06-17T02:26:47.323Z,99.90
2018-06-17T02:29:15.588Z,99.90
2018-06-17T02:31:47.228Z,99.90
2018-06-17T02:34:15.463Z,99.90
2018-06-17T02:36:44.308Z,99.90
2018-06-17T02:39:12.754Z,99.90
2018-06-17T02:41:41.010Z,99.90
2018-06-17T02:44:09.285Z,99.90
2018-06-17T02:46:42.813Z,99.90
2018-06-17T02:49:16.848Z,99.90
2018-06-17T02:51:50.991Z,99.90
2018-06-17T02:54:24.501Z,99.90
2018-06-17T02:56:52.750Z,99.90
2018-06-17T02:59:20.922Z,99.90
2018-06-17T03:01:49.106Z,99.90
2018-06-17T03:04:21.043Z,99.90
2018-06-17T03:06:49.222Z,99.90
2018-06-17T03:09:17.571Z,99.90
2018-06-17T03:11:45.788Z,99.90
2018-06-17T03:14:14.036Z,99.90
2018-06-17T03:16:42.285Z,99.90
2018-06-17T03:19:10.488Z,99.90
2018-06-17T03:21:38.705Z,99.90
2018-06-17T03:24:06.927Z,99.90
2018-06-17T03:26:40.402Z,99.90
2018-06-17T03:29:14.044Z,99.90
2018-06-17T03:31:47.754Z,99.90
2018-06-17T03:34:15.961Z,99.90
2018-06-17T03:36:44.146Z,99.90
2018-06-17T03:39:12.376Z,99.90
2018-06-17T03:41:40.586Z,99.90
2018-06-17T03:44:08.804Z,99.90
2018-06-17T03:46:37.042Z,99.90
2018-06-17T03:49:13.204Z,99.90
2018-06-17T03:51:41.464Z,99.90
2018-06-17T03:54:09.697Z,99.90
2018-06-17T03:56:37.917Z,99.90
2018-06-17T03:59:06.113Z,99.90
2018-06-17T04:01:34.671Z,99.90
2018-06-17T04:04:02.972Z,99.90
2018-06-17T04:06:31.159Z,99.90
2018-06-17T04:08:59.392Z,99.90
2018-06-17T04:11:27.601Z,99.90
2018-06-17T04:13:55.823Z,99.90
2018-06-17T04:16:24.040Z,99.90
2018-06-17T04:18:55.765Z,99.90
2018-06-17T04:21:24.471Z,99.90
2018-06-17T04:23:52.704Z,99.90
2018-06-17T04:26:20.976Z,99.90
2018-06-17T04:28:49.194Z,99.90
2018-06-17T04:31:17.446Z,99.90
2018-06-17T04:33:45.668Z,99.90
2018-06-17T04:36:13.993Z,99.90
2018-06-17T04:38:42.204Z,99.90
2018-06-17T04:41:10.501Z,99.90
2018-06-17T04:43:38.747Z,99.90
2018-06-17T04:46:07.023Z,99.90
2018-06-17T04:48:39.063Z,99.90
2018-06-17T04:51:07.242Z,99.80
2018-06-17T04:53:35.539Z,98.50
2018-06-17T04:56:04.054Z,97.30
2018-06-17T04:58:32.273Z,96.10
2018-06-17T05:01:00.756Z,95.40
2018-06-17T05:03:28.975Z,94.30
2018-06-17T05:05:57.206Z,94.20
2018-06-17T05:08:25.392Z,94.20
2018-06-17T05:10:53.661Z,94.40
2018-06-17T05:13:22.024Z,94.30
2018-06-17T05:15:50.235Z,93.20
2018-06-17T05:18:18.442Z,92.30
2018-06-17T05:20:46.616Z,92.00
2018-06-17T05:23:14.815Z,91.90
2018-06-17T05:25:43.083Z,91.80
2018-06-17T05:28:11.307Z,91.60
2018-06-17T05:30:39.584Z,91.60
2018-06-17T05:33:07.811Z,90.80
2018-06-17T05:35:36.033Z,89.20
2018-06-17T05:38:05.127Z,89.10
2018-06-17T05:40:33.363Z,89.40
2018-06-17T05:43:02.466Z,90.20
2018-06-17T05:45:30.660Z,91.40
2018-06-17T05:47:58.885Z,92.80
2018-06-17T05:50:27.431Z,92.70
2018-06-17T05:52:55.659Z,93.60
2018-06-17T05:55:24.885Z,94.20
2018-06-17T05:57:53.131Z,94.50
2018-06-17T06:00:21.920Z,93.80
2018-06-17T06:02:50.174Z,92.40
2018-06-17T06:05:18.367Z,92.00
2018-06-17T06:07:46.988Z,92.20
2018-06-17T06:10:15.229Z,92.80
2018-06-17T06:12:43.696Z,93.60
2018-06-17T06:15:11.912Z,94.30
2018-06-17T06:17:40.107Z,95.30
2018-06-17T06:20:12.327Z,95.80
2018-06-17T06:22:40.639Z,95.10
2018-06-17T06:25:08.858Z,94.20
2018-06-17T06:27:37.084Z,93.80
2018-06-17T06:30:05.484Z,92.70
2018-06-17T06:32:33.752Z,92.70
2018-06-17T06:35:02.009Z,92.00
2018-06-17T06:37:30.907Z,92.50
2018-06-17T06:39:59.228Z,91.80
2018-06-17T06:42:27.484Z,91.30
2018-06-17T06:44:56.197Z,92.10
2018-06-17T06:47:24.452Z,93.40
2018-06-17T06:49:52.674Z,94.70
2018-06-17T06:52:21.412Z,96.60
2018-06-17T06:54:50.522Z,97.70
2018-06-17T06:57:18.728Z,99.10
2018-06-17T06:59:46.982Z,99.50
2018-06-17T07:02:27.743Z,99.90
2018-06-17T07:07:13.394Z,99.90
2018-06-17T07:09:55.926Z,99.80
2018-06-17T07:12:30.501Z,99.90
2018-06-17T07:14:59.092Z,99.90
2018-06-17T07:17:40.495Z,99.90
2018-06-17T07:20:09.617Z,99.90
2018-06-17T07:22:37.787Z,99.90
2018-06-17T07:25:06.135Z,99.90
2018-06-17T07:27:46.559Z,99.90
2018-06-17T07:30:15.928Z,99.90
2018-06-17T07:32:44.288Z,99.90
2018-06-17T07:35:13.255Z,99.90
2018-06-17T07:37:45.935Z,99.90
2018-06-17T07:40:49.491Z,99.90
2018-06-17T07:43:19.628Z,99.90
2018-06-17T07:45:48.846Z,99.90
2018-06-17T07:48:27.725Z,99.90
2018-06-17T07:51:08.349Z,99.90
2018-06-17T07:53:37.842Z,99.90
2018-06-17T07:56:06.083Z,99.90
2018-06-17T07:58:34.212Z,99.90
2018-06-17T08:01:02.450Z,99.90
2018-06-17T08:03:30.646Z,99.90
2018-06-17T08:05:59.784Z,99.90
2018-06-17T08:08:32.027Z,99.90
2018-06-17T08:11:00.250Z,99.90
2018-06-17T08:13:29.047Z,99.90
2018-06-17T08:15:57.256Z,99.90
2018-06-17T08:18:25.456Z,99.90
2018-06-17T08:20:55.033Z,99.90
2018-06-17T08:23:27.669Z,99.90
2018-06-17T08:25:56.482Z,99.90
2018-06-17T08:28:24.733Z,99.90
2018-06-17T08:30:53.214Z,99.90
2018-06-17T08:33:21.436Z,99.90
2018-06-17T08:35:52.738Z,99.90
2018-06-17T08:40:49.090Z,99.90
2018-06-17T08:43:17.419Z,99.90
2018-06-17T08:45:45.649Z,99.90
2018-06-17T08:48:14.527Z,99.90
2018-06-17T08:50:43.726Z,99.90
2018-06-17T08:53:11.900Z,99.90
2018-06-17T08:55:40.586Z,99.90
2018-06-17T09:00:43.182Z,99.90
2018-06-17T09:03:11.408Z,99.90
2018-06-17T09:05:39.912Z,99.90
2018-06-17T09:08:11.360Z,99.90
2018-06-17T09:10:40.729Z,99.90
2018-06-17T09:13:09.064Z,99.90
2018-06-17T09:15:37.379Z,99.90
2018-06-17T09:18:05.618Z,99.90
2018-06-17T09:20:33.960Z,99.90
2018-06-17T09:23:07.062Z,99.90
2018-06-17T09:25:36.700Z,99.90
2018-06-17T09:28:06.010Z,99.90
2018-06-17T09:30:34.294Z,99.90
2018-06-17T09:33:03.239Z,99.90
2018-06-17T09:35:32.032Z,99.90
2018-06-17T09:38:01.167Z,99.90
2018-06-17T09:40:32.504Z,99.90
2018-06-17T09:43:00.823Z,99.90
2018-06-17T09:45:29.400Z,99.90
2018-06-17T09:47:57.623Z,99.90
2018-06-17T09:50:28.098Z,99.90
2018-06-17T09:52:56.965Z,99.90
2018-06-17T09:55:25.907Z,99.90
2018-06-17T09:57:54.138Z,99.90
2018-06-17T10:00:23.430Z,99.90
2018-06-17T10:02:53.854Z,99.90
2018-06-17T10:05:22.303Z,99.90
2018-06-17T10:07:51.985Z,99.90
2018-06-17T10:10:49.999Z,99.90
2018-06-17T10:13:18.729Z,99.90
2018-06-17T10:15:48.270Z,99.90
2018-06-17T10:18:18.843Z,99.90
2018-06-17T10:20:47.449Z,99.90
2018-06-17T10:23:15.835Z,99.90
2018-06-17T10:25:47.168Z,99.90
2018-06-17T10:28:15.738Z,99.90
2018-06-17T10:30:45.844Z,99.90
2018-06-17T10:33:14.286Z,99.90
2018-06-17T10:35:43.742Z,99.90
2018-06-17T10:38:12.134Z,99.90
2018-06-17T10:40:44.865Z,99.90
2018-06-17T10:43:21.739Z,99.90
2018-06-17T10:45:50.136Z,99.90
2018-06-17T10:48:18.388Z,99.90
2018-06-17T10:50:46.763Z,99.90
2018-06-17T10:53:15.014Z,99.90
2018-06-17T10:55:46.272Z,99.90
2018-06-17T10:58:15.087Z,99.90
2018-06-17T11:00:43.327Z,99.00
2018-06-17T11:03:11.563Z,99.30
2018-06-17T11:08:08.821Z,98.70
2018-06-17T11:10:45.561Z,98.20
2018-06-17T11:13:14.738Z,98.70
2018-06-17T11:15:43.107Z,97.90
2018-06-17T11:18:11.340Z,97.80
2018-06-17T11:20:39.572Z,97.60
2018-06-17T11:23:08.217Z,98.00
2018-06-17T11:25:39.396Z,98.70
2018-06-17T11:28:07.589Z,99.00
2018-06-17T11:30:35.938Z,98.80
2018-06-17T11:33:04.225Z,98.80
2018-06-17T11:35:32.409Z,98.30
2018-06-17T11:38:00.981Z,98.10
2018-06-17T11:40:29.900Z,98.50
2018-06-17T11:42:59.517Z,97.90
2018-06-17T11:45:27.715Z,98.60
2018-06-17T11:47:55.936Z,97.90
2018-06-17T11:50:24.161Z,98.10
2018-06-17T11:52:53.873Z,98.20
2018-06-17T11:55:22.386Z,98.20
2018-06-17T11:57:50.860Z,98.30
2018-06-17T12:00:19.039Z,98.40
2018-06-17T12:02:47.276Z,98.60
2018-06-17T12:05:15.814Z,97.90
2018-06-17T12:07:44.046Z,98.10
2018-06-17T12:12:40.958Z,96.80
2018-06-17T12:15:09.125Z,96.40
2018-06-17T12:17:41.554Z,96.20
2018-06-17T12:20:12.652Z,96.30
2018-06-17T12:22:41.175Z,96.90
2018-06-17T12:25:10.741Z,97.00
2018-06-17T12:27:39.491Z,97.70
2018-06-17T12:30:08.171Z,97.50
2018-06-17T12:32:36.391Z,97.80
2018-06-17T12:35:04.728Z,98.10
2018-06-17T12:37:33.036Z,98.60
2018-06-17T12:40:01.232Z,98.60
2018-06-17T12:42:29.395Z,98.20
2018-06-17T12:45:01.369Z,98.40
2018-06-17T12:47:31.336Z,98.30
2018-06-17T12:49:59.612Z,98.00
2018-06-17T12:52:27.844Z,97.70
2018-06-17T12:54:56.125Z,97.90
2018-06-17T12:57:25.051Z,97.20
2018-06-17T13:00:00.361Z,96.70
2018-06-17T13:02:29.319Z,96.30
2018-06-17T13:05:01.127Z,96.00
2018-06-17T13:07:29.347Z,95.90
2018-06-17T13:09:57.549Z,95.80
2018-06-17T13:12:26.030Z,96.70
2018-06-17T13:14:58.658Z,96.60
2018-06-17T13:17:26.969Z,96.10
2018-06-17T13:19:55.266Z,95.40
2018-06-17T13:22:23.471Z,95.60
2018-06-17T13:24:51.762Z,94.60
2018-06-17T13:27:30.181Z,93.50
2018-06-17T13:29:59.681Z,93.00
2018-06-17T13:32:27.879Z,92.80
2018-06-17T13:34:56.188Z,92.10
2018-06-17T13:37:24.460Z,92.80
2018-06-17T13:39:52.875Z,92.80
2018-06-17T13:42:25.046Z,92.70
2018-06-17T13:44:53.263Z,93.10
2018-06-17T13:47:21.478Z,91.90
2018-06-17T13:49:49.675Z,90.60
2018-06-17T13:52:17.924Z,90.30
2018-06-17T13:57:15.737Z,90.30
2018-06-17T13:59:44.319Z,90.10
2018-06-17T14:02:12.596Z,89.80
2018-06-17T14:04:41.055Z,90.20
2018-06-17T14:07:10.206Z,90.10
2018-06-17T14:09:39.939Z,90.50
2018-06-17T14:12:08.220Z,91.00
2018-06-17T14:14:36.415Z,90.80
2018-06-17T14:17:06.358Z,90.80
2018-06-17T14:19:34.688Z,91.00
2018-06-17T14:22:02.905Z,90.30
2018-06-17T14:24:31.451Z,90.10
2018-06-17T14:26:59.662Z,90.60
2018-06-17T14:29:40.505Z,89.70
2018-06-17T14:32:09.507Z,89.50
2018-06-17T14:34:38.978Z,90.10
2018-06-17T14:37:09.317Z,90.20
2018-06-17T14:39:37.610Z,90.10
2018-06-17T14:44:21.554Z,89.80
2018-06-17T14:46:55.436Z,89.90
2018-06-17T14:49:29.118Z,89.50
2018-06-17T14:52:02.832Z,88.60
2018-06-17T14:54:31.998Z,87.80
2018-06-17T14:57:00.766Z,87.10
2018-06-17T14:59:36.696Z,86.10
2018-06-17T15:02:04.917Z,86.50
2018-06-17T15:04:33.116Z,85.90
2018-06-17T15:07:02.090Z,85.10
2018-06-17T15:09:30.971Z,84.20
2018-06-17T15:11:59.255Z,83.60
2018-06-17T15:17:03.749Z,82.50
2018-06-17T15:19:31.953Z,82.20
2018-06-17T15:22:00.245Z,82.40
2018-06-17T15:24:28.607Z,83.80
2018-06-17T15:26:56.847Z,84.40
2018-06-17T15:29:27.995Z,84.60
2018-06-17T15:32:03.105Z,85.30
2018-06-17T15:34:36.711Z,85.40
2018-06-17T15:37:11.390Z,85.00
2018-06-17T15:39:48.312Z,84.50
2018-06-17T15:42:16.592Z,84.30
2018-06-17T15:44:45.400Z,84.40
2018-06-17T15:47:14.236Z,84.20
2018-06-17T15:49:44.695Z,84.00
2018-06-17T15:52:13.428Z,83.80
2018-06-17T15:54:42.265Z,83.90
2018-06-17T15:57:11.114Z,84.90
2018-06-17T15:59:39.278Z,83.70
2018-06-17T16:02:08.351Z,84.70
2018-06-17T16:04:36.552Z,84.70
2018-06-17T16:07:04.772Z,84.20
2018-06-17T16:09:33.037Z,84.40
2018-06-17T16:12:07.818Z,83.60
2018-06-17T16:14:44.240Z,83.70
2018-06-17T16:17:17.934Z,83.60
2018-06-17T16:19:51.613Z,84.20
2018-06-17T16:24:47.899Z,82.40
2018-06-17T16:27:16.695Z,81.40
2018-06-17T16:29:44.920Z,82.20
2018-06-17T16:34:42.578Z,82.70
2018-06-17T16:37:12.095Z,82.70
2018-06-17T16:39:40.276Z,82.60
2018-06-17T16:42:08.532Z,83.30
2018-06-17T16:44:36.706Z,82.50
2018-06-17T16:47:12.400Z,80.50
2018-06-17T16:49:40.633Z,80.90
2018-06-17T16:52:14.746Z,78.60
2018-06-17T16:54:48.476Z,78.00
2018-06-17T16:57:21.889Z,77.60
2018-06-17T16:59:58.954Z,78.60
2018-06-17T17:04:56.120Z,77.50
2018-06-17T17:07:24.370Z,76.10
2018-06-17T17:09:52.675Z,75.60
2018-06-17T17:12:20.860Z,73.40
2018-06-17T17:14:49.128Z,72.40
2018-06-17T17:17:17.379Z,72.60
2018-06-17T17:19:45.620Z,75.10
2018-06-17T17:22:13.865Z,76.60
2018-06-17T17:24:42.173Z,78.50
2018-06-17T17:27:10.402Z,79.90
2018-06-17T17:29:38.663Z,81.10
2018-06-17T17:32:12.154Z,80.90
2018-06-17T17:34:46.228Z,79.10
2018-06-17T17:37:19.869Z,78.10
2018-06-17T17:39:53.584Z,78.40
2018-06-17T17:44:55.128Z,80.80
2018-06-17T17:47:25.687Z,81.00
2018-06-17T17:49:57.618Z,82.40
2018-06-17T17:52:25.848Z,83.10
2018-06-17T17:54:54.719Z,82.90
2018-06-17T17:57:22.910Z,82.70
2018-06-17T17:59:51.167Z,83.20
2018-06-17T18:02:19.433Z,83.40
2018-06-17T18:04:48.179Z,83.30
2018-06-17T18:07:16.375Z,83.70
2018-06-17T18:09:44.552Z,84.20
2018-06-17T18:12:12.768Z,85.00
2018-06-17T18:14:41.041Z,84.50
2018-06-17T18:17:09.275Z,85.30
2018-06-17T18:19:44.137Z,86.10
2018-06-17T18:22:12.338Z,86.00
2018-06-17T18:24:40.547Z,86.40
2018-06-17T18:27:14.208Z,86.60
2018-06-17T18:29:47.844Z,86.60
2018-06-17T18:32:21.543Z,86.70
2018-06-17T18:34:55.094Z,87.30
2018-06-17T18:37:23.329Z,87.80
2018-06-17T18:39:51.547Z,87.70
2018-06-17T18:42:19.791Z,88.10
2018-06-17T18:44:48.040Z,88.70
2018-06-17T18:47:19.791Z,88.30
2018-06-17T18:49:48.816Z,88.90
2018-06-17T18:52:17.008Z,89.40
2018-06-17T18:57:13.340Z,90.00
2018-06-17T18:59:41.522Z,90.20
2018-06-17T19:02:09.778Z,90.30
2018-06-17T19:04:41.753Z,90.70
2018-06-17T19:07:09.961Z,90.80
2018-06-17T19:09:43.519Z,91.00
2018-06-17T19:12:16.996Z,91.20
2018-06-17T19:14:50.629Z,91.40
2018-06-17T19:17:24.160Z,91.60
2018-06-17T19:19:52.418Z,91.80
2018-06-17T19:22:21.037Z,91.90
2018-06-17T19:24:49.260Z,92.20
2018-06-17T19:27:17.420Z,92.40
2018-06-17T19:29:45.616Z,92.50
2018-06-17T19:32:13.991Z,92.60
2018-06-17T19:34:42.236Z,92.70
2018-06-17T19:37:10.451Z,92.80
2018-06-17T19:39:38.688Z,92.70
2018-06-17T19:42:06.875Z,93.00
2018-06-17T19:44:35.063Z,93.20
2018-06-17T19:47:03.249Z,93.30
2018-06-17T19:49:41.451Z,93.30
2018-06-17T19:52:14.945Z,93.70
2018-06-17T19:54:48.595Z,93.50
2018-06-17T19:57:21.976Z,93.40
2018-06-17T19:59:55.647Z,93.50
2018-06-17T20:02:24.793Z,93.80
2018-06-17T20:04:53.168Z,94.50
2018-06-17T20:07:21.406Z,94.30
2018-06-17T20:09:49.579Z,94.40
2018-06-17T20:12:17.772Z,94.40
2018-06-17T20:14:45.997Z,94.40
2018-06-17T20:17:14.200Z,94.30
2018-06-17T20:19:47.283Z,94.60
2018-06-17T20:22:15.457Z,94.60
2018-06-17T20:24:44.626Z,94.50
2018-06-17T20:27:12.828Z,94.70
2018-06-17T20:29:41.011Z,94.60
2018-06-17T20:32:14.912Z,94.60
2018-06-17T20:34:48.333Z,94.70
2018-06-17T20:37:21.983Z,95.10
2018-06-17T20:39:52.598Z,95.30
2018-06-17T20:42:26.168Z,95.50
2018-06-17T20:44:54.543Z,95.80
2018-06-17T20:47:22.975Z,95.90
2018-06-17T20:49:54.815Z,96.00
2018-06-17T20:52:23.421Z,96.10
2018-06-17T20:54:51.635Z,96.20
2018-06-17T20:57:19.832Z,96.30
2018-06-17T20:59:48.304Z,96.50
2018-06-17T21:02:16.563Z,96.60
2018-06-17T21:04:51.437Z,96.70
2018-06-17T21:07:19.713Z,96.70
2018-06-17T21:09:48.893Z,96.90
2018-06-17T21:12:18.067Z,97.10
2018-06-17T21:14:46.338Z,97.20
2018-06-17T21:17:14.585Z,97.30
2018-06-17T21:22:29.043Z,97.60
2018-06-17T21:25:02.588Z,97.30
2018-06-17T21:27:36.154Z,97.30
2018-06-17T21:30:04.375Z,97.20
2018-06-17T21:32:33.296Z,97.00
2018-06-17T21:35:01.512Z,97.00
2018-06-17T21:37:29.719Z,97.00
2018-06-17T21:42:25.864Z,97.00
2018-06-17T21:44:54.164Z,97.00
2018-06-17T21:47:23.004Z,97.10
2018-06-17T21:49:52.800Z,97.20
2018-06-17T21:52:22.562Z,97.30
2018-06-17T21:54:50.810Z,97.50
2018-06-17T21:57:23.428Z,97.60
2018-06-17T21:59:53.469Z,97.70
2018-06-17T22:02:21.882Z,97.80
2018-06-17T22:04:51.453Z,97.80
2018-06-17T22:07:19.812Z,97.90
2018-06-17T22:09:53.959Z,98.00
2018-06-17T22:12:27.662Z,98.00
2018-06-17T22:15:02.154Z,98.30
2018-06-17T22:17:52.217Z,98.50
2018-06-17T22:20:21.020Z,98.70
2018-06-17T22:22:50.377Z,99.00
2018-06-17T22:25:19.167Z,99.30
2018-06-17T22:27:47.441Z,99.60
2018-06-17T22:30:15.640Z,99.80
2018-06-17T22:32:44.609Z,99.90
2018-06-17T22:35:12.862Z,99.90
2018-06-17T22:37:41.066Z,99.90
2018-06-17T22:40:16.099Z,99.90
2018-06-17T22:42:44.265Z,99.90
2018-06-17T22:45:12.549Z,99.90
2018-06-17T22:47:46.067Z,99.90
2018-06-17T22:50:14.365Z,99.90
2018-06-17T22:52:53.936Z,99.90
2018-06-17T23:00:03.424Z,99.90
2018-06-17T23:02:37.028Z,99.90
2018-06-17T23:05:10.868Z,99.90
2018-06-17T23:07:44.446Z,99.90
2018-06-17T23:10:12.667Z,99.90
2018-06-17T23:12:40.883Z,99.90
2018-06-17T23:15:09.139Z,99.90
2018-06-17T23:17:37.355Z,99.90
2018-06-17T23:20:05.639Z,99.90
2018-06-17T23:25:01.773Z,99.90
2018-06-17T23:27:30.010Z,99.90
2018-06-17T23:29:58.268Z,99.90
2018-06-17T23:32:26.459Z,99.90
2018-06-17T23:34:54.685Z,99.90
2018-06-17T23:37:25.795Z,99.90
2018-06-17T23:39:54.026Z,99.90
2018-06-17T23:42:22.259Z,99.90
2018-06-17T23:47:24.452Z,99.90
2018-06-17T23:49:58.017Z,99.90
2018-06-17T23:52:35.951Z,99.90
2018-06-17T23:55:09.778Z,99.90
2018-06-17T23:57:38.031Z,99.90
